Time;durP1;ratioP1;P1;durP2;ratioP2;P2;SDS_P1;SDS_P2;PMS_P1;PMS_P2;Temp;Humidity;BMP_temperature;BMP_pressure;BME280_temperature;BME280_humidity;BME280_pressure;Samples;Min_cycle;Max_cycle;Signal;HPM_P1;HPM_P2
2023/02/10 00:01:04;;;;;;;0.10;0.10;;;;;;;3.27;72.90;103672.94;5100391;28;20032;-83
2023/02/10 00:03:30;;;;;;;0.77;0.77;;;;;;;3.31;72.42;103672.28;5099313;28;20027;-83
2023/02/10 00:05:56;;;;;;;0.13;0.13;;;;;;;3.33;71.89;103671.56;5100234;28;20073;-83
2023/02/10 00:08:22;;;;;;;1.23;1.23;;;;;;;3.34;71.95;103672.44;5100744;28;20050;-82
2023/02/10 00:10:48;;;;;;;1.05;1.05;;;;;;;3.35;72.05;103666.38;5114043;28;20051;-81
2023/02/10 00:13:15;;;;;;;0.15;0.15;;;;;;;3.36;71.50;103665.56;5109047;28;20048;-83
2023/02/10 00:15:41;;;;;;;0.17;0.17;;;;;;;3.34;72.36;103654.09;5098821;28;20036;-83
2023/02/10 00:18:07;;;;;;;0.20;0.20;;;;;;;3.34;73.18;103656.72;5100112;28;20073;-81
2023/02/10 00:20:33;;;;;;;0.43;0.43;;;;;;;3.38;72.61;103664.84;5101329;28;20518;-82
2023/02/10 00:22:59;;;;;;;0.10;0.10;;;;;;;3.42;72.85;103668.53;5101354;28;20027;-82
2023/02/10 00:25:25;;;;;;;0.20;0.20;;;;;;;3.44;72.76;103664.28;5100547;28;20470;-82
2023/02/10 00:27:51;;;;;;;0.38;0.38;;;;;;;3.43;73.08;103661.56;5098497;28;20092;-83
2023/02/10 00:30:18;;;;;;;0.13;0.13;;;;;;;3.46;72.20;103664.38;5099107;28;20036;-83
2023/02/10 00:32:44;;;;;;;0.10;0.10;;;;;;;3.45;72.52;103662.56;5100006;28;20063;-83
2023/02/10 00:35:10;;;;;;;0.25;0.25;;;;;;;3.44;72.30;103658.13;5099533;28;20028;-83
2023/02/10 00:37:36;;;;;;;0.20;0.20;;;;;;;3.42;71.89;103655.44;5094870;28;20484;-82
2023/02/10 00:40:02;;;;;;;0.10;0.10;;;;;;;3.40;71.82;103652.72;5100441;28;20048;-82
2023/02/10 00:42:28;;;;;;;0.35;0.35;;;;;;;3.38;72.23;103650.84;5100774;28;20050;-82
2023/02/10 00:44:54;;;;;;;0.20;0.20;;;;;;;3.34;71.97;103649.78;5099544;28;20043;-81
2023/02/10 00:47:23;;;;;;;0.10;0.10;;;;;;;3.30;72.28;103649.50;5099399;28;20024;-82
2023/02/10 00:49:49;;;;;;;0.20;0.20;;;;;;;3.24;72.50;103650.97;5106454;28;20025;-82
2023/02/10 00:52:15;;;;;;;0.63;0.63;;;;;;;3.24;72.30;103650.97;5111124;28;20024;-81
2023/02/10 00:54:42;;;;;;;0.32;0.32;;;;;;;3.23;72.48;103658.75;5114766;28;20103;-82
2023/02/10 00:57:08;;;;;;;0.10;0.10;;;;;;;3.27;72.10;103662.47;5101519;28;20055;-82
2023/02/10 00:59:34;;;;;;;0.20;0.20;;;;;;;3.26;71.90;103663.28;5102488;28;20032;-82
2023/02/10 01:02:00;;;;;;;0.10;0.10;;;;;;;3.21;72.01;103663.91;5096881;28;20024;-81
2023/02/10 01:04:26;;;;;;;0.15;0.15;;;;;;;3.16;71.70;103665.34;5088758;28;20040;-82
2023/02/10 01:06:53;;;;;;;0.10;0.10;;;;;;;3.07;72.15;103657.88;5087085;28;20032;-82
2023/02/10 01:09:19;;;;;;;0.20;0.20;;;;;;;3.04;72.07;103664.66;5085265;28;20402;-82
2023/02/10 01:11:45;;;;;;;0.10;0.10;;;;;;;3.00;71.72;103673.19;5084129;28;20039;-82
2023/02/10 01:14:11;;;;;;;1.27;0.90;;;;;;;2.96;71.86;103664.25;5085887;28;20032;-82
2023/02/10 01:16:37;;;;;;;0.20;0.20;;;;;;;2.95;71.75;103667.66;5081605;28;20028;-83
2023/02/10 01:19:04;;;;;;;3.00;2.15;;;;;;;2.92;71.92;103665.78;5085502;28;20036;-83
2023/02/10 01:21:30;;;;;;;0.20;0.20;;;;;;;2.93;71.79;103669.31;5086737;28;20024;-81
2023/02/10 01:23:57;;;;;;;0.20;0.20;;;;;;;2.91;71.92;103660.47;5084440;28;20032;-82
2023/02/10 01:26:23;;;;;;;0.10;0.10;;;;;;;2.88;71.29;103666.44;5084068;28;20029;-82
2023/02/10 01:28:49;;;;;;;0.10;0.10;;;;;;;2.88;71.85;103676.91;5083797;28;20048;-82
2023/02/10 01:31:18;;;;;;;0.13;0.13;;;;;;;2.91;72.12;103669.19;5081865;28;20029;-82
2023/02/10 01:33:45;;;;;;;0.30;0.30;;;;;;;2.92;72.42;103684.09;5083323;28;20028;-83
2023/02/10 01:36:15;;;;;;;0.20;0.20;;;;;;;2.96;72.19;103679.06;5083840;28;20052;-83
2023/02/10 01:38:42;;;;;;;0.10;0.10;;;;;;;2.92;72.55;103672.75;5083501;28;20033;-83
2023/02/10 01:41:08;;;;;;;0.38;0.38;;;;;;;2.97;72.22;103684.38;5089591;28;20041;-81
2023/02/10 01:44:14;;;;;;;0.22;0.22;;;;;;;3.05;72.56;103684.81;5089362;28;20067;-82
2023/02/10 01:46:40;;;;;;;0.10;0.10;;;;;;;3.03;72.42;103683.84;5093298;28;20036;-81
2023/02/10 01:49:10;;;;;;;0.10;0.10;;;;;;;3.06;72.53;103678.75;5088073;28;20055;-82
2023/02/10 01:51:51;;;;;;;0.10;0.10;;;;;;;3.07;72.71;103678.84;5086492;28;20029;-82
2023/02/10 01:54:21;;;;;;;0.20;0.20;;;;;;;3.07;72.11;103691.94;5086523;28;20083;-84
2023/02/10 01:56:49;;;;;;;0.10;0.10;;;;;;;3.02;72.23;103684.66;5086785;28;20021;-83
2023/02/10 01:59:15;;;;;;;0.10;0.10;;;;;;;2.97;71.94;103693.97;5086354;28;20040;-83
2023/02/10 02:01:42;;;;;;;0.20;0.20;;;;;;;2.95;72.06;103687.72;5089767;28;20399;-83
2023/02/10 02:04:08;;;;;;;0.20;0.20;;;;;;;2.94;72.26;103691.16;5084252;28;20737;-82
2023/02/10 02:06:35;;;;;;;0.20;0.20;;;;;;;2.94;72.85;103685.91;5084324;28;20051;-83
2023/02/10 02:09:01;;;;;;;0.40;0.40;;;;;;;2.98;72.92;103685.28;5084982;28;20032;-83
2023/02/10 02:11:42;;;;;;;0.10;0.10;;;;;;;3.02;72.97;103687.28;5084615;28;20032;-83
2023/02/10 02:14:36;;;;;;;1.05;0.98;;;;;;;3.03;72.49;103676.88;5083272;28;21119;-82
2023/02/10 02:17:26;;;;;;;0.20;0.20;;;;;;;2.97;72.27;103680.88;5078567;28;20032;-82
2023/02/10 02:22:58;;;;;;;0.13;0.13;;;;;;;2.94;72.08;103676.38;5112413;27;20495;-82
2023/02/10 02:29:00;;;;;;;0.10;0.10;;;;;;;2.84;71.93;103680.16;5123967;27;1175119;-81
2023/02/10 02:37:26;;;;;;;0.20;0.20;;;;;;;2.55;71.83;103692.44;5143271;27;1170068;-82
2023/02/10 02:39:52;;;;;;;0.30;0.30;;;;;;;2.47;71.74;103700.63;5162507;27;20341;-83
2023/02/10 02:51:12;;;;;;;0.13;0.13;;;;;;;2.29;71.84;103713.53;5118908;27;20141;-82
2023/02/10 02:56:32;;;;;;;0.20;0.20;;;;;;;2.21;71.51;103719.19;5082937;28;20865;-81
2023/02/10 02:59:24;;;;;;;0.20;0.20;;;;;;;2.18;71.63;103716.41;5083699;28;20054;-82
2023/02/10 03:01:56;;;;;;;0.17;0.17;;;;;;;2.15;71.99;103715.31;5075884;28;20282;-81
2023/02/10 03:04:23;;;;;;;0.20;0.20;;;;;;;2.17;71.90;103717.22;5083969;28;20390;-82
2023/02/10 03:06:49;;;;;;;0.20;0.20;;;;;;;2.15;72.21;103708.34;5090922;28;20028;-82
2023/02/10 03:09:17;;;;;;;0.10;0.10;;;;;;;2.22;72.26;103713.16;5080612;28;20039;-82
2023/02/10 03:11:43;;;;;;;0.10;0.10;;;;;;;2.28;72.05;103709.09;5080302;28;20028;-81
2023/02/10 03:14:09;;;;;;;0.20;0.20;;;;;;;2.29;72.76;103710.91;5074793;28;20082;-83
2023/02/10 03:16:35;;;;;;;0.20;0.20;;;;;;;2.33;73.10;103718.13;5093245;28;20043;-81
2023/02/10 03:19:02;;;;;;;0.32;0.32;;;;;;;2.40;72.47;103712.47;5090906;28;20032;-81
2023/02/10 03:21:28;;;;;;;0.10;0.10;;;;;;;2.41;73.04;103719.50;5076504;28;20335;-82
2023/02/10 03:23:54;;;;;;;0.28;0.28;;;;;;;2.45;73.32;103716.25;5078432;28;20484;-83
2023/02/10 03:26:20;;;;;;;0.20;0.20;;;;;;;2.47;72.96;103718.97;5080189;28;20048;-83
2023/02/10 03:28:46;;;;;;;0.10;0.10;;;;;;;2.48;72.66;103715.53;5078020;28;20028;-82
2023/02/10 03:31:12;;;;;;;0.10;0.10;;;;;;;2.52;72.57;103722.78;5075496;28;20045;-82
2023/02/10 03:33:38;;;;;;;0.17;0.17;;;;;;;2.51;72.58;103719.25;5076614;28;20036;-82
2023/02/10 03:36:05;;;;;;;0.10;0.10;;;;;;;2.52;72.87;103721.06;5078769;28;20078;-83
2023/02/10 03:38:31;;;;;;;0.10;0.10;;;;;;;2.53;73.10;103725.50;5077384;28;20407;-83
2023/02/10 03:40:57;;;;;;;0.20;0.20;;;;;;;2.52;72.97;103721.06;5078617;28;20096;-83
2023/02/10 03:43:24;;;;;;;0.20;0.20;;;;;;;2.51;73.02;103714.00;5076640;28;20119;-83
2023/02/10 03:45:50;;;;;;;0.85;0.85;;;;;;;2.51;72.95;103715.75;5076349;28;20025;-83
2023/02/10 03:48:16;;;;;;;0.10;0.10;;;;;;;2.50;72.52;103721.78;5077680;28;20506;-83
2023/02/10 03:50:42;;;;;;;0.20;0.20;;;;;;;2.49;72.66;103723.47;5077053;28;20021;-83
2023/02/10 03:53:09;;;;;;;0.10;0.10;;;;;;;2.46;72.50;103718.06;5075830;28;20032;-82
2023/02/10 03:55:35;;;;;;;0.20;0.20;;;;;;;2.45;72.44;103716.25;5077689;28;20051;-82
2023/02/10 03:58:02;;;;;;;0.10;0.10;;;;;;;2.43;72.38;103716.19;5077084;28;20033;-82
2023/02/10 04:00:29;;;;;;;2.20;1.20;;;;;;;2.40;72.30;103700.28;5076087;28;20037;-82
2023/02/10 04:02:55;;;;;;;0.10;0.10;;;;;;;2.37;72.46;103707.06;5080857;28;20032;-82
2023/02/10 04:05:21;;;;;;;1.27;0.65;;;;;;;2.35;72.47;103708.69;5086574;28;20036;-82
2023/02/10 04:07:50;;;;;;;5.82;1.10;;;;;;;2.31;72.45;103714.53;5072006;28;20048;-82
2023/02/10 04:10:16;;;;;;;0.50;0.50;;;;;;;2.24;72.66;103719.41;5067197;28;20036;-83
2023/02/10 04:12:42;;;;;;;0.68;0.68;;;;;;;2.21;72.61;103727.06;5063269;28;20029;-82
2023/02/10 04:15:09;;;;;;;0.10;0.10;;;;;;;2.19;72.68;103723.44;5066301;28;20041;-81
2023/02/10 04:17:35;;;;;;;0.20;0.20;;;;;;;2.17;72.38;103725.06;5066179;28;20506;-82
2023/02/10 04:20:01;;;;;;;0.30;0.30;;;;;;;2.12;72.98;103720.34;5062893;28;20056;-82
2023/02/10 04:22:27;;;;;;;0.10;0.10;;;;;;;2.18;72.67;103726.88;5063418;28;20028;-81
2023/02/10 04:24:53;;;;;;;0.17;0.17;;;;;;;2.20;72.40;103724.34;5066155;28;20036;-82
2023/02/10 04:27:20;;;;;;;0.57;0.57;;;;;;;2.23;73.08;103720.22;5063849;28;20025;-83
2023/02/10 04:29:46;;;;;;;0.13;0.13;;;;;;;2.28;72.87;103727.44;5060438;28;20067;-80
2023/02/10 04:32:12;;;;;;;0.13;0.13;;;;;;;2.32;72.78;103735.56;5062055;28;20119;-81
2023/02/10 04:34:38;;;;;;;0.20;0.20;;;;;;;2.34;73.04;103733.03;5064362;28;20036;-81
2023/02/10 04:37:04;;;;;;;0.20;0.20;;;;;;;2.33;73.44;103733.84;5063202;28;20052;-82
2023/02/10 04:39:30;;;;;;;0.20;0.20;;;;;;;2.36;72.89;103728.81;5064449;28;20025;-82
2023/02/10 04:41:56;;;;;;;0.20;0.20;;;;;;;2.36;72.80;103728.81;5064921;28;20024;-81
2023/02/10 04:44:22;;;;;;;0.20;0.20;;;;;;;2.38;73.26;103724.53;5063417;28;20033;-83
2023/02/10 04:46:49;;;;;;;0.55;0.55;;;;;;;2.36;73.75;103713.09;5071424;28;20017;-82
2023/02/10 04:49:16;;;;;;;0.30;0.30;;;;;;;2.41;73.56;103715.16;5071018;28;20089;-80
2023/02/10 04:51:42;;;;;;;0.20;0.20;;;;;;;2.43;73.58;103715.28;5073528;28;20087;-82
2023/02/10 04:54:08;;;;;;;0.20;0.20;;;;;;;2.44;73.79;103711.84;5059952;28;20067;-83
2023/02/10 04:56:34;;;;;;;0.20;0.20;;;;;;;2.47;73.41;103718.97;5057629;28;20032;-82
2023/02/10 04:59:00;;;;;;;1.35;1.35;;;;;;;2.43;73.57;103720.53;5054378;28;20041;-83
2023/02/10 05:01:26;;;;;;;0.20;0.20;;;;;;;2.45;73.32;103712.75;5060339;28;20029;-83
2023/02/10 05:03:52;;;;;;;0.20;0.20;;;;;;;2.43;73.68;103720.53;5050247;28;20028;-82
2023/02/10 05:06:18;;;;;;;0.20;0.20;;;;;;;2.43;73.51;103712.66;5051174;28;20040;-83
2023/02/10 05:08:45;;;;;;;0.28;0.28;;;;;;;2.40;73.24;103712.47;5057975;28;20040;-83
2023/02/10 05:11:13;;;;;;;0.30;0.30;;;;;;;2.41;72.99;103709.94;5059158;28;20029;-83
2023/02/10 05:13:40;;;;;;;0.20;0.20;;;;;;;2.40;73.19;103712.47;5053334;28;20025;-82
2023/02/10 05:16:07;;;;;;;0.20;0.20;;;;;;;2.39;73.43;103713.28;5055237;28;20021;-83
2023/02/10 05:18:34;;;;;;;0.30;0.30;;;;;;;2.39;72.81;103721.13;5058036;28;20025;-82
2023/02/10 05:21:02;;;;;;;0.20;0.20;;;;;;;2.38;73.44;103724.53;5063249;28;20059;-81
2023/02/10 05:23:28;;;;;;;0.82;0.82;;;;;;;2.36;73.41;103723.56;5051884;28;20029;-82
2023/02/10 05:25:55;;;;;;;1.08;1.08;;;;;;;2.34;72.99;103717.34;5061631;28;20109;-82
2023/02/10 05:28:21;;;;;;;0.20;0.20;;;;;;;2.30;72.88;103718.84;5052411;28;20055;-83
2023/02/10 05:30:48;;;;;;;0.30;0.30;;;;;;;2.31;73.17;103712.81;5050941;28;20025;-83
2023/02/10 05:33:14;;;;;;;0.20;0.20;;;;;;;2.31;73.24;103711.94;5048080;28;20021;-83
2023/02/10 05:35:41;;;;;;;0.17;0.17;;;;;;;2.30;73.57;103720.59;5055408;28;20025;-83
2023/02/10 05:38:07;;;;;;;0.30;0.30;;;;;;;2.32;73.28;103724.16;5061239;28;20036;-83
2023/02/10 05:40:33;;;;;;;0.20;0.20;;;;;;;2.33;73.38;103732.13;5068374;28;20063;-83
2023/02/10 05:42:59;;;;;;;0.10;0.10;;;;;;;2.34;73.55;103730.41;5057481;28;21763;-83
2023/02/10 05:45:25;;;;;;;0.20;0.20;;;;;;;2.34;73.52;103717.34;5059536;28;20025;-82
2023/02/10 05:47:51;;;;;;;0.10;0.10;;;;;;;2.34;73.40;103706.88;5064484;28;20545;-82
2023/02/10 05:50:18;;;;;;;1.42;1.33;;;;;;;2.30;73.58;103705.78;5053044;28;20032;-82
2023/02/10 05:52:44;;;;;;;0.15;0.15;;;;;;;2.26;73.29;103704.69;5060998;28;20048;-83
2023/02/10 05:55:10;;;;;;;0.20;0.20;;;;;;;2.22;73.49;103704.44;5057420;28;20025;-82
2023/02/10 05:57:36;;;;;;;0.20;0.20;;;;;;;2.15;73.77;103700.50;5054299;28;20056;-83
2023/02/10 06:00:04;;;;;;;0.20;0.20;;;;;;;2.11;73.64;103703.75;5050677;28;20025;-81
2023/02/10 06:02:31;;;;;;;0.45;0.45;;;;;;;2.11;73.59;103703.75;5055206;28;20025;-82
2023/02/10 06:04:57;;;;;;;1.23;0.85;;;;;;;2.07;73.38;103701.78;5063944;28;20032;-81
2023/02/10 06:07:23;;;;;;;0.13;0.13;;;;;;;2.07;73.36;103712.25;5051278;28;20025;-82
2023/02/10 06:09:49;;;;;;;0.10;0.10;;;;;;;2.02;73.39;103719.78;5052816;28;20053;-82
2023/02/10 06:12:15;;;;;;;0.20;0.20;;;;;;;2.03;73.28;103737.31;5050183;28;20499;-81
2023/02/10 06:14:41;;;;;;;0.20;0.20;;;;;;;2.01;73.57;103744.13;5054049;28;20377;-81
2023/02/10 06:17:08;;;;;;;0.20;0.20;;;;;;;1.99;73.71;103729.16;5056670;28;20041;-81
2023/02/10 06:19:36;;;;;;;0.25;0.25;;;;;;;1.98;73.67;103727.34;5052984;28;20028;-83
2023/02/10 06:22:02;;;;;;;1.48;1.48;;;;;;;1.99;73.66;103737.00;5061647;28;20060;-82
2023/02/10 06:24:28;;;;;;;0.10;0.10;;;;;;;1.97;73.63;103738.59;5062605;28;20037;-82
2023/02/10 06:26:55;;;;;;;0.20;0.20;;;;;;;1.96;73.62;103745.56;5064319;28;20029;-82
2023/02/10 06:29:21;;;;;;;0.10;0.10;;;;;;;1.98;73.50;103737.81;5057825;28;20028;-82
2023/02/10 06:31:47;;;;;;;0.10;0.10;;;;;;;1.93;73.53;103743.66;5054266;28;20029;-83
2023/02/10 06:34:13;;;;;;;0.10;0.10;;;;;;;1.90;73.60;103753.91;5052298;28;20036;-82
2023/02/10 06:36:39;;;;;;;0.70;0.65;;;;;;;1.86;73.37;103765.00;5054313;28;20033;-83
2023/02/10 06:39:05;;;;;;;0.20;0.20;;;;;;;1.85;73.70;103764.91;5054408;28;20045;-82
2023/02/10 06:41:32;;;;;;;0.20;0.20;;;;;;;1.81;73.29;103763.81;5053047;28;20049;-82
2023/02/10 06:43:58;;;;;;;0.20;0.20;;;;;;;1.75;73.65;103755.56;5056835;28;20451;-82
2023/02/10 06:46:25;;;;;;;1.08;0.70;;;;;;;1.76;73.66;103762.63;5058286;28;20029;-82
2023/02/10 06:48:51;;;;;;;0.20;0.20;;;;;;;1.78;73.30;103758.38;5061176;28;20037;-82
2023/02/10 06:51:17;;;;;;;0.15;0.15;;;;;;;1.79;73.37;103768.03;5055770;28;20040;-83
2023/02/10 06:53:44;;;;;;;0.10;0.10;;;;;;;1.77;73.76;103759.22;5061389;28;20053;-82
2023/02/10 06:56:11;;;;;;;0.10;0.10;;;;;;;1.79;73.56;103762.78;5061801;28;20033;-82
2023/02/10 06:58:37;;;;;;;0.35;0.35;;;;;;;1.81;73.39;103755.97;5053506;28;20086;-82
2023/02/10 07:01:08;;;;;;;0.15;0.15;;;;;;;1.81;73.60;103748.13;5056884;28;20619;-82
2023/02/10 07:03:35;;;;;;;0.20;0.20;;;;;;;1.78;73.57;103742.69;5051316;28;20041;-82
2023/02/10 07:06:01;;;;;;;0.20;0.20;;;;;;;1.81;73.76;103740.28;5055027;28;20021;-82
2023/02/10 07:08:27;;;;;;;0.17;0.17;;;;;;;1.80;73.55;103741.09;5047909;28;20061;-82
2023/02/10 07:10:53;;;;;;;0.20;0.20;;;;;;;1.81;73.64;103740.28;5048205;28;20567;-82
2023/02/10 07:13:19;;;;;;;0.10;0.10;;;;;;;1.78;73.52;103737.47;5048809;28;20052;-81
2023/02/10 07:15:46;;;;;;;0.20;0.20;;;;;;;1.81;73.93;103748.13;5054131;28;20045;-81
2023/02/10 07:18:12;;;;;;;0.10;0.10;;;;;;;1.84;73.67;103750.91;5066006;28;20079;-82
2023/02/10 07:20:38;;;;;;;0.20;0.20;;;;;;;1.85;73.47;103752.72;5056670;28;20056;-83
2023/02/10 07:23:07;;;;;;;3.83;1.48;;;;;;;1.84;73.43;103761.38;5041583;28;20037;-82
2023/02/10 07:25:33;;;;;;;0.20;0.20;;;;;;;1.85;73.67;103762.28;5054346;28;20499;-81
2023/02/10 07:27:59;;;;;;;0.85;0.85;;;;;;;1.83;73.50;103769.13;5058062;28;20056;-82
2023/02/10 07:30:25;;;;;;;1.38;1.27;;;;;;;1.85;73.53;103773.66;5045198;28;20464;-82
2023/02/10 07:32:51;;;;;;;0.20;0.20;;;;;;;1.88;73.63;103786.00;5042230;28;20040;-82
2023/02/10 07:35:17;;;;;;;0.98;0.95;;;;;;;1.91;73.67;103786.22;5045394;28;20079;-82
2023/02/10 07:37:43;;;;;;;0.63;0.63;;;;;;;1.96;73.81;103797.88;5052476;28;20120;-82
2023/02/10 07:40:17;;;;;;;0.10;0.10;;;;;;;2.02;73.68;103797.34;5054680;28;20163;-82
2023/02/10 07:42:43;;;;;;;0.20;0.20;;;;;;;1.97;73.74;103798.75;5052316;28;20022;-82
2023/02/10 07:45:09;;;;;;;0.13;0.13;;;;;;;1.98;73.52;103796.25;5060919;28;20843;-82
2023/02/10 07:47:36;;;;;;;0.10;0.10;;;;;;;2.00;73.82;103796.34;5061384;28;20036;-82
2023/02/10 07:50:03;;;;;;;1.35;0.85;;;;;;;2.01;74.02;103801.66;5057062;28;20114;-81
2023/02/10 07:52:29;;;;;;;0.98;0.98;;;;;;;2.04;74.18;103788.78;5056257;28;20036;-82
2023/02/10 07:54:55;;;;;;;1.33;1.23;;;;;;;2.06;74.00;103789.78;5065817;28;20051;-82
2023/02/10 07:57:21;;;;;;;1.67;1.60;;;;;;;2.12;73.64;103785.75;5065736;28;20045;-82
2023/02/10 07:59:47;;;;;;;0.82;0.82;;;;;;;2.10;73.82;103781.31;5060660;28;20127;-82
2023/02/10 08:02:13;;;;;;;0.35;0.35;;;;;;;2.14;73.80;103792.88;5056296;28;20044;-81
2023/02/10 08:04:39;;;;;;;0.10;0.10;;;;;;;2.12;73.96;103801.44;5057800;28;20369;-82
2023/02/10 08:07:06;;;;;;;0.20;0.20;;;;;;;2.18;73.91;103807.97;5052825;28;20021;-84
2023/02/10 08:09:32;;;;;;;0.20;0.20;;;;;;;2.18;74.04;103813.22;5058276;28;20052;-83
2023/02/10 08:11:58;;;;;;;0.20;0.20;;;;;;;2.20;73.81;103814.19;5057839;28;20033;-83
2023/02/10 08:14:24;;;;;;;1.25;1.25;;;;;;;2.22;73.62;103809.97;5060521;28;20110;-82
2023/02/10 08:16:50;;;;;;;0.22;0.22;;;;;;;2.21;73.57;103807.25;5057834;28;20444;-82
2023/02/10 08:19:16;;;;;;;0.35;0.35;;;;;;;2.20;73.74;103806.34;5059228;28;20100;-83
2023/02/10 08:21:42;;;;;;;0.55;0.55;;;;;;;2.21;73.55;103808.16;5052651;28;20045;-82
2023/02/10 08:24:09;;;;;;;1.88;1.77;;;;;;;2.23;73.69;103808.22;5050444;28;20041;-83
2023/02/10 08:26:35;;;;;;;0.10;0.10;;;;;;;2.25;73.78;103812.75;5056061;28;20116;-82
2023/02/10 08:29:01;;;;;;;0.15;0.15;;;;;;;2.26;73.67;103811.94;5057253;28;20018;-82
2023/02/10 08:31:27;;;;;;;0.30;0.30;;;;;;;2.29;73.61;103802.50;5056198;28;20025;-82
2023/02/10 08:33:53;;;;;;;0.20;0.20;;;;;;;2.32;73.76;103811.44;5057941;28;20044;-82
2023/02/10 08:36:21;;;;;;;0.40;0.40;;;;;;;2.31;73.85;103806.13;5050484;28;20087;-81
2023/02/10 08:38:49;;;;;;;0.50;0.50;;;;;;;2.31;73.68;103800.88;5050567;28;20509;-82
2023/02/10 08:41:15;;;;;;;0.10;0.10;;;;;;;2.33;73.87;103809.72;5053238;28;20033;-82
2023/02/10 08:43:42;;;;;;;0.10;0.10;;;;;;;2.35;73.84;103810.72;5046046;28;20476;-83
2023/02/10 08:46:09;;;;;;;0.93;0.93;;;;;;;2.41;73.65;103805.88;5040329;28;20053;-82
2023/02/10 08:48:35;;;;;;;0.30;0.30;;;;;;;2.43;73.62;103804.25;5042691;28;20021;-82
2023/02/10 08:51:07;;;;;;;0.85;0.70;;;;;;;2.48;73.63;103802.81;5052284;28;20021;-82
2023/02/10 08:53:33;;;;;;;0.20;0.20;;;;;;;2.51;73.80;103799.50;5052108;28;20028;-82
2023/02/10 08:56:03;;;;;;;0.75;0.75;;;;;;;2.57;73.63;103795.53;5048042;28;20037;-82
2023/02/10 08:58:30;;;;;;;0.15;0.15;;;;;;;2.59;73.73;103808.69;5051761;28;20025;-82
2023/02/10 09:00:56;;;;;;;0.10;0.10;;;;;;;2.65;73.65;103814.31;5048021;28;20028;-83
2023/02/10 09:03:23;;;;;;;1.80;1.73;;;;;;;2.69;73.56;103815.41;5050232;28;20041;-82
2023/02/10 09:05:49;;;;;;;0.20;0.20;;;;;;;2.71;73.69;103804.19;5047662;28;20075;-82
2023/02/10 09:08:16;;;;;;;0.10;0.10;;;;;;;2.75;73.71;103813.16;5042521;28;20036;-83
2023/02/10 09:10:44;;;;;;;0.35;0.35;;;;;;;2.80;73.32;103818.66;5057432;28;20096;-84
2023/02/10 09:13:10;;;;;;;0.20;0.20;;;;;;;2.85;73.59;103818.13;5044290;28;20033;-82
2023/02/10 09:15:38;;;;;;;0.20;0.20;;;;;;;2.91;73.52;103814.97;5044137;28;20029;-84
2023/02/10 09:18:05;;;;;;;0.10;0.10;;;;;;;2.94;73.47;103815.19;5044537;28;20151;-83
2023/02/10 09:20:31;;;;;;;0.17;0.17;;;;;;;3.00;73.25;103823.38;5059396;28;20021;-84
2023/02/10 09:22:57;;;;;;;0.10;0.10;;;;;;;3.01;73.74;103819.06;5050735;28;20072;-84
2023/02/10 09:25:24;;;;;;;0.10;0.10;;;;;;;3.07;73.63;103819.41;5060277;28;20047;-84
2023/02/10 09:27:52;;;;;;;0.90;0.90;;;;;;;3.11;73.78;103823.13;5061126;28;20025;-84
2023/02/10 09:30:18;;;;;;;0.10;0.10;;;;;;;3.10;73.49;103824.81;5058541;28;20051;-84
2023/02/10 09:32:44;;;;;;;0.47;0.47;;;;;;;3.11;73.69;103830.97;5051431;28;20129;-85
2023/02/10 09:35:12;;;;;;;0.40;0.40;;;;;;;3.10;73.63;103832.69;5056297;28;20539;-84
2023/02/10 09:37:38;;;;;;;0.20;0.20;;;;;;;3.17;73.63;103833.97;5052818;28;20064;-84
2023/02/10 09:40:16;;;;;;;0.55;0.55;;;;;;;3.20;73.47;103839.38;5052401;28;20033;-83
2023/02/10 09:43:13;;;;;;;0.20;0.20;;;;;;;3.32;73.83;103839.19;5047015;28;20126;-85
2023/02/10 09:45:40;;;;;;;0.20;0.20;;;;;;;3.35;73.70;103836.75;5048404;28;20036;-85
2023/02/10 09:51:05;;;;;;;0.20;0.20;;;;;;;3.43;73.47;103819.75;5109808;27;1160495;-84
2023/02/10 09:53:31;;;;;;;0.20;0.20;;;;;;;3.42;73.55;103822.28;5123422;28;20293;-84
2023/02/10 09:56:02;;;;;;;0.80;0.80;;;;;;;3.49;73.31;103830.59;5130250;28;20087;-82
2023/02/10 09:58:37;;;;;;;0.43;0.43;;;;;;;3.55;73.53;103830.03;5133373;28;20035;-83
2023/02/10 10:01:17;;;;;;;0.20;0.20;;;;;;;3.59;73.74;103833.72;5120848;27;20039;-84
2023/02/10 10:03:50;;;;;;;10.30;1.75;;;;;;;3.71;73.90;103831.81;5119160;28;20020;-84
2023/02/10 10:06:29;;;;;;;0.60;0.60;;;;;;;3.79;73.77;103817.41;5121990;28;20032;-84
2023/02/10 10:11:46;;;;;;;0.20;0.20;;;;;;;3.89;74.04;103822.34;5092250;27;1219147;-83
2023/02/10 10:14:19;;;;;;;0.22;0.22;;;;;;;3.97;73.83;103814.91;5111193;28;20055;-82
2023/02/10 10:17:08;;;;;;;4.75;2.70;;;;;;;4.05;73.60;103823.22;5116835;28;20038;-83
2023/02/10 10:28:31;;;;;;;0.20;0.20;;;;;;;4.40;73.86;103810.19;5095522;27;20378;-82
2023/02/10 10:33:49;;;;;;;1.55;0.80;;;;;;;4.60;73.83;103808.59;5083593;27;20409;-82
2023/02/10 10:36:18;;;;;;;0.10;0.10;;;;;;;4.71;74.22;103807.47;5069569;28;20029;-82
2023/02/10 10:38:51;;;;;;;0.10;0.10;;;;;;;4.86;74.08;103803.00;5074967;28;20025;-83
2023/02/10 10:41:19;;;;;;;0.10;0.10;;;;;;;4.94;73.82;103805.13;5064703;28;20024;-84
2023/02/10 10:43:49;;;;;;;0.10;0.10;;;;;;;5.06;73.76;103799.56;5069423;28;20025;-83
2023/02/10 10:46:46;;;;;;;0.22;0.22;;;;;;;5.19;73.01;103802.88;5072017;28;20020;-82
2023/02/10 10:49:12;;;;;;;0.17;0.17;;;;;;;5.23;72.85;103803.06;5073703;28;20044;-82
2023/02/10 10:51:39;;;;;;;0.52;0.52;;;;;;;5.29;72.60;103804.25;5071959;28;20029;-82
2023/02/10 10:54:14;;;;;;;0.95;0.95;;;;;;;5.40;72.29;103796.91;5074555;28;20052;-82
2023/02/10 10:59:34;;;;;;;0.20;0.20;;;;;;;5.72;72.30;103786.13;5119505;27;1158780;-81
2023/02/10 11:02:13;;;;;;;0.20;0.20;;;;;;;5.85;72.08;103795.53;5132243;27;20309;-81
2023/02/10 11:04:42;;;;;;;0.52;0.52;;;;;;;5.94;71.78;103790.69;5145194;27;20091;-82
2023/02/10 11:07:12;;;;;;;1.38;1.05;;;;;;;6.09;71.56;103790.53;5139098;27;20051;-82
2023/02/10 11:09:47;;;;;;;0.47;0.47;;;;;;;6.20;71.54;103791.03;5146265;27;20031;-81
2023/02/10 11:12:20;;;;;;;0.55;0.55;;;;;;;6.29;70.94;103786.16;5134953;27;20115;-82
2023/02/10 11:14:49;;;;;;;0.20;0.20;;;;;;;6.36;70.14;103784.72;5144016;27;20037;-81
2023/02/10 11:17:38;;;;;;;0.20;0.20;;;;;;;6.51;70.34;103787.16;5143579;27;20027;-81
2023/02/10 11:20:26;;;;;;;0.20;0.20;;;;;;;6.59;69.85;103777.81;5143700;27;20080;-83
2023/02/10 11:23:13;;;;;;;0.10;0.10;;;;;;;6.70;70.08;103779.19;5143430;27;20023;-80
2023/02/10 11:25:40;;;;;;;0.73;0.73;;;;;;;6.72;70.16;103774.00;5141094;27;20024;-82
2023/02/10 11:28:16;;;;;;;0.65;0.55;;;;;;;6.74;69.94;103777.59;5143536;27;20030;-83
2023/02/10 11:30:46;;;;;;;0.68;0.68;;;;;;;6.69;69.38;103768.59;5137128;27;20035;-83
2023/02/10 11:33:23;;;;;;;0.38;0.38;;;;;;;6.66;68.48;103764.09;5128415;27;20061;-80
2023/02/10 11:35:55;;;;;;;0.35;0.35;;;;;;;6.63;68.86;103769.25;5122495;27;20024;-81
2023/02/10 11:38:23;;;;;;;;;;;;;;;6.81;68.61;103750.69;5138014;27;20148;-82
2023/02/10 11:40:56;;;;;;;1.35;1.27;;;;;;;6.77;68.74;103761.94;5138880;27;19911;-82
2023/02/10 11:43:30;;;;;;;5.53;1.60;;;;;;;6.79;68.59;103753.25;5150299;27;20022;-80
2023/02/10 11:46:00;;;;;;;0.50;0.50;;;;;;;6.80;68.01;103749.78;5146620;27;20046;-82
2023/02/10 11:48:27;;;;;;;1.85;1.75;;;;;;;6.88;68.14;103760.66;5126443;27;20016;-82
2023/02/10 11:53:41;;;;;;;4.18;2.35;;;;;;;6.95;67.38;103753.88;5136449;27;20386;-85
2023/02/10 11:56:19;;;;;;;0.95;0.95;;;;;;;7.18;67.98;103753.94;5132176;27;20043;-83
2023/02/10 11:59:03;;;;;;;0.20;0.20;;;;;;;7.24;67.91;103744.56;5133196;27;20031;-83
2023/02/10 12:01:57;;;;;;;4.53;3.78;;;;;;;7.40;67.02;103755.72;5129450;27;20368;-81
2023/02/10 12:04:55;;;;;;;0.38;0.38;;;;;;;7.56;66.53;103754.59;5128329;27;20457;-80
2023/02/10 12:07:46;;;;;;;0.10;0.10;;;;;;;7.70;66.38;103739.28;5135759;27;20065;-82
2023/02/10 12:10:24;;;;;;;0.20;0.20;;;;;;;7.84;66.59;103729.25;5132108;27;20034;-82
2023/02/10 12:15:53;;;;;;;2.35;2.25;;;;;;;7.93;65.45;103738.41;5066867;28;20892;-83
2023/02/10 12:21:42;;;;;;;0.38;0.38;;;;;;;8.16;65.73;103735.75;5070585;28;20950;-83
2023/02/10 12:27:03;;;;;;;0.95;0.95;;;;;;;8.29;64.93;103737.09;5112202;27;20474;-82
2023/02/10 12:35:21;;;;;;;18.35;1.85;;;;;;;8.74;64.03;103730.75;5106085;27;20412;-82
2023/02/10 12:41:02;;;;;;;4.70;3.30;;;;;;;8.95;63.21;103719.09;5105650;27;1175163;-82
2023/02/10 12:53:02;;;;;;;4.68;0.85;;;;;;;9.79;61.69;103702.28;5065587;28;20391;-83
2023/02/10 12:55:48;;;;;;;5.57;1.55;;;;;;;9.84;61.28;103710.38;5055444;28;20060;-83